AirNav   Textron
 
 1611 users online  

OR40 Dietz Airpark
Canby, Oregon, USA

GOING TO CANBY?


FAA INFORMATION EFFECTIVE 20 JULY 2017

Location

FAA Identifier: OR40
Lat/Long: 45-15-20.4360N / 122-39-03.3270W
45-15.340600N / 122-39.055450W
45.2556767 / -122.6509242
(estimated)
Elevation: 180 ft. / 55 m (estimated)
Variation: 19E (1985)
From city: 2 miles E of CANBY, OR
Time zone: UTC -7 (UTC -8 during Standard Time)
Zip code: 97013

Airport Operations

Airport use: Private use. Permission required prior to landing
Activation date: 07/1968
Control tower: no
ARTCC: SEATTLE CENTER
FSS: MC MINNVILLE FLIGHT SERVICE STATION
Attendance: UNATNDD
Wind indicator: yes
Segmented circle: no

Airport Communications

UNICOM: 122.7
WX ASOS at UAO (5 nm W): 118.525 (503-678-3011)

Nearby radio navigation aids

VOR radial/distance  VOR name  Freq  Var
UBGr092/15.0NEWBERG VOR/DME117.4021E
BTGr164/29.6BATTLE GROUND VORTAC116.6021E

 
NDB name  Hdg/Dist  Freq  Var  ID
LAKER189/18.933216ELBH .-.. -... ....
TURNO010/27.626617ESLE ... .-.. .
BANKS128/28.035616EPND .--. -. -..

Airport Services

Airframe service: NONE
Powerplant service: NONE

Runway Information

Runway 16/34

Dimensions: 2640 x 60 ft. / 805 x 18 m
Surface: turf
RUNWAY 16  RUNWAY 34
Traffic pattern: leftleft
Obstructions: treesroad

Airport Ownership and Management from official FAA records

Ownership: Privately-owned
Owner: DIETZ AIRPARK HOMEOWNERS ASSN
25474 SOUTH SKYLANE DRIVE
CANBY, OR 97013
Phone 503-266-4535
Manager: MILENA BLAKE
24291 S. SKYLANE DR
CANBY, OR 97013
Phone 503-266-4535

Airport Operational Statistics

Aircraft based on the field: 42
Single engine airplanes: 39
Multi engine airplanes: 2
Ultralights: 1
    

Instrument Procedures

There are no published instrument procedures at OR40.

Some nearby airports with instrument procedures:

KUAO - Aurora State Airport (5 nm W)
KPDX - Portland International Airport (20 nm N)
KTTD - Portland-Troutdale Airport (21 nm NE)
KMMV - Mc Minnville Municipal Airport (21 nm W)
KHIO - Portland-Hillsboro Airport (21 nm NW)
 
Loc | Ops | Rwys | IFR | FBO | Links
Com | Nav | Svcs | Stats | Notes


 
Area around OR40 (Dietz Airpark)
 
Road maps at: MapQuest Bing Google
 
Aerial photo
WARNING: Photo may not be current or correct
Aerial photo of OR40 (Dietz Airpark)
Do you have a better or more recent aerial photo of Dietz Airpark that you would like to share? If so, please send us your photo.

 
Sectional chart

 
Airport distance calculator
Flying to Dietz Airpark? Find the distance to fly.

From to OR40

Sunrise and sunset
Times for 25-Jul-2017
 Local
(UTC-7)
 Zulu
(UTC)
Morning civil twilight05:1412:14
Sunrise05:4812:48
Sunset20:4603:46
Evening civil twilight21:2104:21

Current date and time
Zulu (UTC)  25-Jul-2017 16:14:50
Local (UTC-7)  25-Jul-2017 09:14:50
 
METAR
KUAO 
5nm W 
251553Z 09004KT 10SM CLR 21/12 A3002 RMK AO2 SLP163 T02060122
KPDX 
20nm N 
251553Z VRB04KT 10SM FEW250 19/13 A3002 RMK AO2 SLP163 T01890133
TAF
KPDX 
20nm N 
251120Z 2512/2612 30004KT P6SM SCT250 FM252100 31009KT P6SM SKC FM260700 32004KT P6SM SCT250
KTTD 
20nm NE 
251120Z 2512/2612 29004KT P6SM SCT250
KHIO 
22nm NW 
251120Z 2512/2612 30003KT P6SM SCT250 FM260000 33010KT P6SM SKC FM260700 00000KT P6SM SKC
NOTAMs
Click for the latest NOTAMs
NOTAMs are issued by the DoD/FAA and will open in a separate window not controlled by AirNav.

 

 
 

Would you like to see your business listed on this page?

 If your business provides an interesting product or service to pilots, flight crews, aircraft, or users of the Dietz Airpark, you should consider listing it here.  To start the listing process, click on the button below
 
Add a business
 

Other Pages about Dietz Airpark

Update a link
 
Copyright © AirNav, LLC. All rights reserved. Privacy Policy  Contact